TAF KABY
KABY 280541Z 2806/2906 23003KT P6SM BKN150 OVC250 FM281800 25006KT P6SM -RA SCT070 BKN100 OVC150 FM282100 27007KT P6SM -RA SCT018 BKN030 FM290000 29005KT P6SM SCT010 BKN018 OVC070=
METAR KABY
WC KABY
WS KABY
WV KABY